Time;durP1;ratioP1;P1;durP2;ratioP2;P2;SDS_P1;SDS_P2;PMS_P1;PMS_P2;Temp;Humidity;BMP_temperature;BMP_pressure;BME280_temperature;BME280_humidity;BME280_pressure;Samples;Min_cycle;Max_cycle;Signal;HPM_P1;HPM_P2
2023/08/03 00:01:27;;;;;;;;;;;18.70;96.30;;;;;;5081369;28;20376;-68
2023/08/03 00:03:53;;;;;;;;;;;18.70;96.30;;;;;;5087570;28;19912;-68
2023/08/03 00:06:18;;;;;;;;;;;18.60;96.40;;;;;;5087060;28;19916;-68
2023/08/03 00:08:44;;;;;;;;;;;18.60;96.40;;;;;;5101269;28;19942;-68
2023/08/03 00:11:09;;;;;;;;;;;18.60;96.40;;;;;;5107727;28;19912;-68
2023/08/03 00:13:35;;;;;;;;;;;18.60;96.40;;;;;;5089632;28;19988;-68
2023/08/03 00:16:00;;;;;;;;;;;18.60;96.50;;;;;;5070449;28;19965;-68
2023/08/03 00:18:26;;;;;;;;;;;18.50;96.50;;;;;;5088478;28;19915;-68
2023/08/03 00:20:52;;;;;;;;;;;18.50;96.60;;;;;;5107692;28;19919;-68
2023/08/03 00:23:17;;;;;;;;;;;18.50;96.60;;;;;;5090009;28;19908;-68
2023/08/03 00:25:43;;;;;;;;;;;18.50;96.80;;;;;;5070595;28;20006;-68
2023/08/03 00:28:08;;;;;;;;;;;18.50;96.60;;;;;;5099449;28;19911;-68
2023/08/03 00:30:34;;;;;;;;;;;18.50;96.60;;;;;;5094510;28;20265;-68
2023/08/03 00:32:59;;;;;;;;;;;18.50;96.70;;;;;;5091713;28;19955;-68
2023/08/03 00:35:25;;;;;;;;;;;18.50;96.60;;;;;;5091613;28;19964;-68
2023/08/03 00:37:53;;;;;;;;;;;18.50;96.70;;;;;;5079165;28;20330;-68
2023/08/03 00:40:19;;;;;;;;;;;18.40;96.70;;;;;;5111906;28;19911;-68
2023/08/03 00:42:44;;;;;;;;;;;18.40;96.80;;;;;;5092814;28;20376;-68
2023/08/03 00:45:11;;;;;;;;;;;18.30;96.70;;;;;;5091360;28;19912;-68
2023/08/03 00:47:37;;;;;;;;;;;18.30;96.80;;;;;;5095084;28;19912;-68
2023/08/03 00:50:03;;;;;;;;;;;18.40;96.90;;;;;;5112014;28;20214;-68
2023/08/03 00:52:28;;;;;;;;;;;18.40;96.80;;;;;;5093377;28;19963;-68
2023/08/03 00:54:54;;;;;;;;;;;18.30;96.90;;;;;;5099048;28;19912;-68
2023/08/03 00:57:19;;;;;;;;;;;18.40;96.90;;;;;;5092171;28;20619;-69
2023/08/03 00:59:45;;;;;;;;;;;18.30;96.90;;;;;;5100456;28;19916;-69
2023/08/03 01:02:10;;;;;;;;;;;18.20;97.00;;;;;;5089982;28;19912;-69
2023/08/03 01:04:36;;;;;;;;;;;18.20;96.90;;;;;;5090996;28;19921;-69
2023/08/03 01:07:01;;;;;;;;;;;18.20;97.00;;;;;;5090484;28;19912;-69
2023/08/03 01:09:27;;;;;;;;;;;18.20;97.10;;;;;;5109966;28;20269;-70
2023/08/03 01:11:52;;;;;;;;;;;18.20;96.90;;;;;;5111127;28;19915;-69
2023/08/03 01:14:18;;;;;;;;;;;18.20;97.00;;;;;;5084366;28;19992;-70
2023/08/03 01:16:44;;;;;;;;;;;18.20;97.10;;;;;;5070170;28;20016;-70
2023/08/03 01:19:10;;;;;;;;;;;18.10;97.10;;;;;;5103181;28;19927;-70
2023/08/03 01:21:37;;;;;;;;;;;18.20;97.20;;;;;;5110984;28;19918;-70
2023/08/03 01:24:02;;;;;;;;;;;18.10;97.30;;;;;;5106591;28;20398;-70
2023/08/03 01:26:28;;;;;;;;;;;18.20;97.20;;;;;;5090461;28;19912;-70
2023/08/03 01:28:53;;;;;;;;;;;18.10;97.10;;;;;;5104168;28;19916;-70
2023/08/03 01:31:19;;;;;;;;;;;18.10;97.20;;;;;;5099217;28;19923;-70
2023/08/03 01:33:45;;;;;;;;;;;18.10;97.30;;;;;;5090433;28;19912;-70
2023/08/03 01:36:10;;;;;;;;;;;18.10;97.30;;;;;;5090348;28;19927;-69
2023/08/03 01:38:36;;;;;;;;;;;18.10;97.40;;;;;;5090308;28;19916;-69
2023/08/03 01:41:01;;;;;;;;;;;18.10;97.30;;;;;;5090561;28;19950;-70
2023/08/03 01:43:27;;;;;;;;;;;18.10;97.40;;;;;;5090390;28;19997;-70
2023/08/03 01:45:53;;;;;;;;;;;18.10;97.60;;;;;;5105927;28;19912;-69
2023/08/03 01:48:18;;;;;;;;;;;18.00;97.80;;;;;;5101856;28;20432;-69
2023/08/03 01:50:44;;;;;;;;;;;18.00;97.70;;;;;;5071888;28;19916;-69
2023/08/03 01:53:09;;;;;;;;;;;18.00;97.60;;;;;;5090364;28;19946;-69
2023/08/03 01:55:35;;;;;;;;;;;18.00;97.50;;;;;;5088346;28;19912;-69
2023/08/03 01:58:01;;;;;;;;;;;18.00;97.70;;;;;;5096164;28;20465;-70
2023/08/03 02:00:27;;;;;;;;;;;18.00;97.60;;;;;;5098852;28;19923;-69
2023/08/03 02:02:52;;;;;;;;;;;18.00;97.60;;;;;;5090679;28;19916;-70
2023/08/03 02:05:18;;;;;;;;;;;18.00;97.60;;;;;;5089910;28;20616;-70
2023/08/03 02:07:44;;;;;;;;;;;18.00;97.70;;;;;;5092830;28;19918;-70
2023/08/03 02:10:10;;;;;;;;;;;18.00;97.70;;;;;;5110935;28;19919;-70
2023/08/03 02:12:36;;;;;;;;;;;17.90;97.90;;;;;;5111139;28;19919;-69
2023/08/03 02:15:02;;;;;;;;;;;18.00;97.80;;;;;;5090495;28;19913;-70
2023/08/03 02:17:28;;;;;;;;;;;17.90;97.80;;;;;;5071606;28;19913;-70
2023/08/03 02:19:54;;;;;;;;;;;17.90;97.70;;;;;;5110442;28;19916;-68
2023/08/03 02:22:20;;;;;;;;;;;18.00;97.70;;;;;;5109955;28;19947;-68
2023/08/03 02:24:45;;;;;;;;;;;17.90;97.70;;;;;;5099368;28;19963;-68
2023/08/03 02:27:10;;;;;;;;;;;17.90;97.70;;;;;;5089454;28;20395;-69
2023/08/03 02:29:36;;;;;;;;;;;17.90;97.80;;;;;;5107953;28;19916;-68
2023/08/03 02:32:02;;;;;;;;;;;17.90;97.70;;;;;;5095334;28;19912;-69
2023/08/03 02:34:27;;;;;;;;;;;17.90;97.70;;;;;;5089508;28;19912;-69
2023/08/03 02:36:52;;;;;;;;;;;17.90;97.70;;;;;;5088747;28;20258;-69
2023/08/03 02:39:18;;;;;;;;;;;17.90;98.00;;;;;;5096371;28;19920;-69
2023/08/03 02:41:43;;;;;;;;;;;17.90;97.80;;;;;;5070525;28;19912;-69
2023/08/03 02:44:09;;;;;;;;;;;17.90;97.90;;;;;;5089402;28;20430;-69
2023/08/03 02:46:34;;;;;;;;;;;17.90;97.90;;;;;;5070612;28;19919;-68
2023/08/03 02:49:00;;;;;;;;;;;17.90;97.90;;;;;;5101262;28;20639;-68
2023/08/03 02:51:26;;;;;;;;;;;17.90;97.90;;;;;;5108938;28;19919;-69
2023/08/03 02:53:51;;;;;;;;;;;17.90;97.80;;;;;;5108065;28;20300;-69
2023/08/03 02:56:17;;;;;;;;;;;17.90;97.90;;;;;;5089000;28;19908;-68
2023/08/03 02:58:42;;;;;;;;;;;17.80;98.00;;;;;;5080533;28;20555;-69
2023/08/03 03:01:08;;;;;;;;;;;17.80;98.00;;;;;;5087972;28;19920;-69
2023/08/03 03:03:33;;;;;;;;;;;17.80;98.00;;;;;;5088704;28;19912;-69
2023/08/03 03:05:58;;;;;;;;;;;17.80;97.90;;;;;;5088183;28;19958;-71
2023/08/03 03:08:24;;;;;;;;;;;17.90;97.80;;;;;;5095488;28;19936;-68
2023/08/03 03:10:49;;;;;;;;;;;17.80;97.90;;;;;;5108962;28;20030;-70
2023/08/03 03:13:15;;;;;;;;;;;17.80;98.00;;;;;;5109004;28;19918;-69
2023/08/03 03:15:40;;;;;;;;;;;17.80;98.00;;;;;;5077203;28;19941;-69
2023/08/03 03:18:06;;;;;;;;;;;17.80;98.10;;;;;;5077518;28;20284;-69
2023/08/03 03:20:31;;;;;;;;;;;17.80;98.10;;;;;;5108762;28;19915;-69
2023/08/03 03:22:57;;;;;;;;;;;17.80;98.20;;;;;;5108694;28;19912;-69
2023/08/03 03:25:22;;;;;;;;;;;17.80;98.10;;;;;;5092646;28;19916;-69
2023/08/03 03:27:48;;;;;;;;;;;17.70;98.00;;;;;;5089911;28;19947;-68
2023/08/03 03:30:16;;;;;;;;;;;17.80;98.00;;;;;;5108926;28;19915;-69
2023/08/03 03:32:42;;;;;;;;;;;17.80;98.00;;;;;;5088881;28;20307;-68
2023/08/03 03:35:07;;;;;;;;;;;17.80;98.00;;;;;;5088066;28;19968;-69
2023/08/03 03:37:33;;;;;;;;;;;17.70;98.00;;;;;;5087967;28;20297;-69
2023/08/03 03:39:58;;;;;;;;;;;17.70;97.90;;;;;;5088216;28;20393;-69
2023/08/03 03:42:24;;;;;;;;;;;17.70;97.90;;;;;;5088224;28;19916;-68
2023/08/03 03:44:49;;;;;;;;;;;17.70;97.90;;;;;;5088359;28;19912;-69
2023/08/03 03:47:15;;;;;;;;;;;17.70;98.00;;;;;;5088167;28;19912;-69
2023/08/03 03:49:40;;;;;;;;;;;17.70;98.00;;;;;;5104972;28;19915;-69
2023/08/03 03:52:06;;;;;;;;;;;17.70;98.00;;;;;;5104673;28;19962;-68
2023/08/03 03:54:31;;;;;;;;;;;17.70;98.10;;;;;;5099922;28;19934;-68
2023/08/03 03:56:58;;;;;;;;;;;17.70;98.10;;;;;;5087693;28;20324;-69
2023/08/03 03:59:23;;;;;;;;;;;17.70;98.00;;;;;;5099552;28;19916;-68
2023/08/03 04:01:49;;;;;;;;;;;17.70;98.00;;;;;;5067746;28;19916;-69
2023/08/03 04:04:14;;;;;;;;;;;17.70;97.80;;;;;;5091815;28;19991;-68
2023/08/03 04:06:40;;;;;;;;;;;17.70;97.90;;;;;;5087434;28;20319;-68
2023/08/03 04:09:05;;;;;;;;;;;17.70;97.80;;;;;;5088234;28;19923;-68
2023/08/03 04:11:31;;;;;;;;;;;17.60;97.80;;;;;;5087994;28;19926;-69
2023/08/03 04:13:56;;;;;;;;;;;17.60;97.90;;;;;;5087535;28;19912;-69
2023/08/03 04:16:22;;;;;;;;;;;17.60;97.80;;;;;;5087317;28;20010;-69
2023/08/03 04:18:47;;;;;;;;;;;17.60;97.90;;;;;;5083476;28;19912;-69
2023/08/03 04:21:13;;;;;;;;;;;17.60;97.90;;;;;;5074438;28;20015;-69
2023/08/03 04:23:38;;;;;;;;;;;17.60;98.10;;;;;;5086394;28;19912;-69
2023/08/03 04:26:04;;;;;;;;;;;17.60;97.80;;;;;;5083673;28;19924;-69
2023/08/03 04:28:29;;;;;;;;;;;17.50;98.10;;;;;;5079365;28;19922;-69
2023/08/03 04:30:55;;;;;;;;;;;17.50;98.20;;;;;;5107961;28;20668;-68
2023/08/03 04:33:20;;;;;;;;;;;17.60;98.00;;;;;;5107102;28;19969;-69
2023/08/03 04:35:46;;;;;;;;;;;17.60;98.00;;;;;;5087028;28;19912;-69
2023/08/03 04:38:11;;;;;;;;;;;17.60;98.10;;;;;;5087330;28;19916;-69
2023/08/03 04:40:37;;;;;;;;;;;17.50;98.00;;;;;;5087197;28;19959;-68
2023/08/03 04:43:02;;;;;;;;;;;17.60;98.00;;;;;;5087195;28;19908;-69
2023/08/03 04:45:28;;;;;;;;;;;17.60;98.00;;;;;;5068449;28;19920;-68
2023/08/03 04:47:53;;;;;;;;;;;17.60;98.00;;;;;;5087462;28;19924;-68
2023/08/03 04:50:21;;;;;;;;;;;17.60;98.00;;;;;;5107613;28;20618;-69
2023/08/03 04:52:46;;;;;;;;;;;17.60;97.90;;;;;;5107391;28;20376;-69
2023/08/03 04:55:12;;;;;;;;;;;17.60;97.80;;;;;;5092962;28;19912;-69
2023/08/03 04:57:37;;;;;;;;;;;17.60;98.00;;;;;;5086833;28;20003;-69
2023/08/03 05:00:03;;;;;;;;;;;17.60;97.90;;;;;;5089070;28;20506;-69
2023/08/03 05:02:29;;;;;;;;;;;17.60;98.00;;;;;;5048824;28;19913;-69
2023/08/03 05:04:54;;;;;;;;;;;17.60;98.00;;;;;;5080172;28;19912;-69
2023/08/03 05:07:20;;;;;;;;;;;17.50;98.00;;;;;;5086599;28;20532;-69
2023/08/03 05:09:45;;;;;;;;;;;17.50;97.90;;;;;;5102400;28;19915;-69
2023/08/03 05:12:11;;;;;;;;;;;17.50;98.00;;;;;;5107189;28;19912;-70
2023/08/03 05:14:36;;;;;;;;;;;17.60;97.90;;;;;;5099439;28;19912;-69
2023/08/03 05:17:01;;;;;;;;;;;17.60;98.00;;;;;;5089816;28;20403;-69
2023/08/03 05:19:27;;;;;;;;;;;17.50;98.00;;;;;;5103481;28;19922;-70
2023/08/03 05:21:52;;;;;;;;;;;17.60;97.90;;;;;;5110914;28;19912;-69
2023/08/03 05:24:18;;;;;;;;;;;17.60;97.80;;;;;;5104216;28;19927;-69
2023/08/03 05:26:44;;;;;;;;;;;17.60;97.90;;;;;;5084312;28;19908;-69
2023/08/03 05:29:10;;;;;;;;;;;17.60;97.90;;;;;;5100567;28;19916;-69
2023/08/03 05:31:35;;;;;;;;;;;17.60;97.80;;;;;;5110829;28;19912;-69
2023/08/03 05:34:02;;;;;;;;;;;17.60;98.10;;;;;;5104047;28;20308;-70
2023/08/03 05:36:28;;;;;;;;;;;17.60;98.00;;;;;;5090341;28;19935;-70
2023/08/03 05:38:53;;;;;;;;;;;17.60;98.00;;;;;;5079484;28;19912;-69
2023/08/03 05:41:20;;;;;;;;;;;17.60;97.70;;;;;;5110695;28;19920;-70
2023/08/03 05:43:46;;;;;;;;;;;17.60;98.20;;;;;;5110710;28;19999;-69
2023/08/03 05:46:12;;;;;;;;;;;17.60;98.00;;;;;;5070188;28;19995;-69
2023/08/03 05:48:38;;;;;;;;;;;17.60;98.00;;;;;;5080332;28;19919;-69
2023/08/03 05:51:04;;;;;;;;;;;17.60;98.10;;;;;;5110302;28;19908;-69
2023/08/03 05:53:29;;;;;;;;;;;17.60;97.90;;;;;;5092238;28;20386;-69
2023/08/03 05:55:55;;;;;;;;;;;17.60;98.10;;;;;;5087845;28;19916;-70
2023/08/03 05:58:20;;;;;;;;;;;17.50;98.30;;;;;;5092286;28;19920;-69
2023/08/03 06:00:47;;;;;;;;;;;17.60;98.20;;;;;;5098071;28;20564;-69
2023/08/03 06:03:13;;;;;;;;;;;17.60;98.30;;;;;;5089420;28;19912;-69
2023/08/03 06:05:46;;;;;;;;;;;17.50;98.40;;;;;;5089433;28;19919;-69
2023/08/03 06:08:18;;;;;;;;;;;17.50;98.40;;;;;;5090495;28;20061;-69
2023/08/03 06:10:54;;;;;;;;;;;17.60;98.20;;;;;;5110131;28;19907;-70
2023/08/03 06:13:22;;;;;;;;;;;17.50;98.30;;;;;;5109823;28;19916;-69
2023/08/03 06:15:48;;;;;;;;;;;17.50;98.10;;;;;;5075747;28;19981;-69
2023/08/03 06:18:15;;;;;;;;;;;17.60;98.40;;;;;;5083596;28;20408;-69
2023/08/03 06:20:43;;;;;;;;;;;17.60;98.50;;;;;;5080458;28;19921;-69
2023/08/03 06:23:21;;;;;;;;;;;17.60;98.40;;;;;;5088788;28;19908;-69
2023/08/03 06:25:47;;;;;;;;;;;17.60;98.20;;;;;;5071201;28;20030;-69
2023/08/03 06:28:14;;;;;;;;;;;17.60;98.20;;;;;;5088906;28;19952;-69
2023/08/03 06:30:39;;;;;;;;;;;17.60;98.00;;;;;;5073677;28;19923;-69
2023/08/03 06:33:07;;;;;;;;;;;17.60;98.20;;;;;;5051068;28;19913;-69
2023/08/03 06:35:37;;;;;;;;;;;17.60;98.40;;;;;;5088095;28;19908;-69
2023/08/03 06:38:03;;;;;;;;;;;17.60;98.60;;;;;;5071108;28;19914;-69
2023/08/03 06:40:29;;;;;;;;;;;17.60;98.40;;;;;;5089456;28;20361;-69
2023/08/03 06:42:55;;;;;;;;;;;17.60;98.20;;;;;;5089525;28;19926;-69
2023/08/03 06:45:20;;;;;;;;;;;17.60;98.40;;;;;;5070455;28;19916;-68
2023/08/03 06:47:47;;;;;;;;;;;17.60;98.50;;;;;;5089099;28;20280;-69
2023/08/03 06:50:12;;;;;;;;;;;17.60;98.40;;;;;;5105242;28;19912;-69
2023/08/03 06:52:38;;;;;;;;;;;17.50;98.40;;;;;;5109767;28;19976;-68
2023/08/03 06:55:04;;;;;;;;;;;17.50;98.40;;;;;;5096625;28;19915;-69
2023/08/03 06:57:29;;;;;;;;;;;17.50;98.50;;;;;;5084079;28;19912;-69
2023/08/03 06:59:55;;;;;;;;;;;17.60;98.70;;;;;;5087765;28;20502;-69
2023/08/03 07:02:21;;;;;;;;;;;17.60;98.70;;;;;;5069724;28;20383;-70
2023/08/03 07:04:47;;;;;;;;;;;17.60;98.80;;;;;;5085375;28;19951;-69
2023/08/03 07:07:14;;;;;;;;;;;17.50;98.80;;;;;;5087961;28;20104;-69
2023/08/03 07:09:40;;;;;;;;;;;17.50;98.70;;;;;;5088855;28;19924;-70
2023/08/03 07:12:09;;;;;;;;;;;17.50;98.80;;;;;;5088640;28;19912;-69
2023/08/03 07:14:34;;;;;;;;;;;17.50;99.00;;;;;;5079735;28;19957;-69
2023/08/03 07:17:00;;;;;;;;;;;17.50;99.10;;;;;;5068696;28;20365;-69
2023/08/03 07:19:25;;;;;;;;;;;17.50;99.00;;;;;;5068920;28;20716;-69
2023/08/03 07:21:51;;;;;;;;;;;17.50;99.20;;;;;;5068372;28;19957;-70
2023/08/03 07:24:16;;;;;;;;;;;17.50;98.80;;;;;;5068552;28;20656;-69
2023/08/03 07:26:42;;;;;;;;;;;17.50;99.30;;;;;;5074698;28;19908;-69
2023/08/03 07:29:08;;;;;;;;;;;17.50;99.10;;;;;;5087204;28;19916;-70
2023/08/03 07:31:33;;;;;;;;;;;17.50;99.20;;;;;;5088907;28;20002;-70
2023/08/03 07:33:59;;;;;;;;;;;17.50;99.20;;;;;;5088526;28;19908;-69
2023/08/03 07:36:24;;;;;;;;;;;17.60;99.10;;;;;;5070376;28;20367;-69
2023/08/03 07:38:50;;;;;;;;;;;17.60;98.90;;;;;;5093132;28;19923;-69
2023/08/03 07:41:15;;;;;;;;;;;17.60;99.20;;;;;;5109384;28;20038;-70
2023/08/03 07:43:41;;;;;;;;;;;17.60;99.40;;;;;;5104068;28;20395;-69
2023/08/03 07:46:06;;;;;;;;;;;17.60;99.10;;;;;;5069534;28;20036;-69
2023/08/03 07:48:32;;;;;;;;;;;17.60;99.10;;;;;;5068617;28;20272;-69
2023/08/03 07:50:58;;;;;;;;;;;17.60;99.00;;;;;;5068253;28;19912;-69
2023/08/03 07:53:23;;;;;;;;;;;17.70;99.00;;;;;;5072568;28;19920;-69
2023/08/03 07:55:49;;;;;;;;;;;17.70;99.00;;;;;;5089113;28;19916;-69
2023/08/03 07:58:14;;;;;;;;;;;17.70;99.00;;;;;;5070793;28;19947;-69
2023/08/03 08:00:40;;;;;;;;;;;17.70;99.30;;;;;;5083902;28;19931;-69
2023/08/03 08:03:05;;;;;;;;;;;17.70;99.10;;;;;;5088172;28;19923;-69
2023/08/03 08:05:31;;;;;;;;;;;17.70;99.10;;;;;;5083111;28;20072;-69
2023/08/03 08:07:56;;;;;;;;;;;17.70;99.10;;;;;;5087502;28;19913;-69
2023/08/03 08:10:22;;;;;;;;;;;17.80;99.30;;;;;;5087614;28;19926;-69
2023/08/03 08:12:47;;;;;;;;;;;17.70;99.30;;;;;;5088591;28;19920;-69
2023/08/03 08:15:12;;;;;;;;;;;17.80;99.20;;;;;;5088073;28;19915;-70
2023/08/03 08:17:38;;;;;;;;;;;17.70;99.20;;;;;;5088290;28;20465;-69
2023/08/03 08:20:04;;;;;;;;;;;17.80;99.00;;;;;;5088456;28;20006;-69
2023/08/03 08:22:29;;;;;;;;;;;17.80;99.20;;;;;;5088190;28;19912;-69
2023/08/03 08:24:55;;;;;;;;;;;17.90;99.10;;;;;;5107998;28;19927;-69
2023/08/03 08:27:20;;;;;;;;;;;17.90;99.00;;;;;;5078110;28;19919;-69
2023/08/03 08:29:46;;;;;;;;;;;17.90;98.90;;;;;;5087843;28;20398;-69
2023/08/03 08:32:12;;;;;;;;;;;18.00;98.90;;;;;;5088109;28;20368;-70
2023/08/03 08:34:37;;;;;;;;;;;18.00;99.00;;;;;;5093890;28;19992;-69
2023/08/03 08:37:03;;;;;;;;;;;18.10;99.10;;;;;;5087541;28;19908;-69
2023/08/03 08:39:29;;;;;;;;;;;18.10;99.10;;;;;;5088218;28;19966;-69
2023/08/03 08:41:55;;;;;;;;;;;18.10;98.90;;;;;;5087407;28;20395;-70
2023/08/03 08:44:20;;;;;;;;;;;18.10;99.10;;;;;;5093232;28;19917;-69
2023/08/03 08:46:46;;;;;;;;;;;18.20;98.80;;;;;;5067449;28;20551;-70
2023/08/03 08:49:12;;;;;;;;;;;18.30;98.90;;;;;;5070890;28;19916;-70
2023/08/03 08:51:39;;;;;;;;;;;18.30;99.00;;;;;;5071265;28;19913;-69
2023/08/03 08:54:04;;;;;;;;;;;18.40;99.40;;;;;;5090924;28;20528;-70
2023/08/03 08:56:30;;;;;;;;;;;18.40;98.90;;;;;;5091179;28;20029;-70
2023/08/03 08:58:56;;;;;;;;;;;18.50;98.80;;;;;;5091421;28;19994;-71
2023/08/03 09:01:21;;;;;;;;;;;18.40;99.20;;;;;;5090687;28;19916;-70
2023/08/03 09:03:48;;;;;;;;;;;18.40;99.10;;;;;;5096227;28;19997;-69
2023/08/03 09:06:13;;;;;;;;;;;18.50;99.30;;;;;;5091254;28;20296;-70
2023/08/03 09:08:49;;;;;;;;;;;18.60;98.90;;;;;;5091358;28;19912;-70
2023/08/03 09:11:14;;;;;;;;;;;18.60;98.90;;;;;;5091230;28;19959;-70
2023/08/03 09:13:40;;;;;;;;;;;18.60;98.70;;;;;;5099158;28;19946;-69
2023/08/03 09:16:20;;;;;;;;;;;18.70;98.80;;;;;;5054301;28;19919;-70
2023/08/03 09:18:46;;;;;;;;;;;18.70;98.50;;;;;;5070910;28;19919;-69
2023/08/03 09:21:13;;;;;;;;;;;18.80;98.50;;;;;;5070776;28;19917;-69
2023/08/03 09:23:38;;;;;;;;;;;18.80;98.50;;;;;;5077507;28;19915;-69
2023/08/03 09:26:04;;;;;;;;;;;18.90;98.30;;;;;;5071497;28;19916;-70
2023/08/03 09:28:34;;;;;;;;;;;18.90;98.80;;;;;;5055897;28;19919;-69
2023/08/03 09:31:00;;;;;;;;;;;18.90;98.60;;;;;;5088754;28;19994;-69
2023/08/03 09:33:25;;;;;;;;;;;18.90;98.60;;;;;;5095465;28;20052;-70
2023/08/03 09:36:00;;;;;;;;;;;18.90;98.80;;;;;;5090830;28;20266;-69
2023/08/03 09:38:26;;;;;;;;;;;18.90;98.60;;;;;;5091286;28;19927;-71
2023/08/03 09:40:52;;;;;;;;;;;19.00;98.50;;;;;;5090827;28;19916;-70
2023/08/03 09:43:17;;;;;;;;;;;18.90;98.60;;;;;;5094697;28;19927;-70
2023/08/03 09:45:45;;;;;;;;;;;19.00;98.40;;;;;;5060344;28;20254;-71
2023/08/03 09:48:11;;;;;;;;;;;19.10;98.40;;;;;;5070359;28;19955;-70
2023/08/03 09:50:37;;;;;;;;;;;19.10;98.30;;;;;;5070161;28;19912;-69
2023/08/03 09:53:06;;;;;;;;;;;19.10;98.40;;;;;;5072350;28;19916;-71
2023/08/03 09:55:33;;;;;;;;;;;19.20;98.30;;;;;;5089458;28;20003;-69
2023/08/03 09:58:00;;;;;;;;;;;19.20;98.20;;;;;;5093754;28;20350;-70
2023/08/03 10:00:26;;;;;;;;;;;19.20;98.10;;;;;;5090001;28;19912;-69
2023/08/03 10:02:55;;;;;;;;;;;19.10;98.10;;;;;;5089865;28;19916;-70
2023/08/03 10:05:21;;;;;;;;;;;19.10;98.20;;;;;;5087023;28;19916;-69
2023/08/03 10:07:56;;;;;;;;;;;19.10;98.10;;;;;;5089836;28;19919;-70
2023/08/03 10:10:23;;;;;;;;;;;19.10;98.10;;;;;;5088357;28;19920;-69
2023/08/03 10:12:52;;;;;;;;;;;19.10;98.20;;;;;;5089782;28;19907;-69
2023/08/03 10:15:18;;;;;;;;;;;19.10;98.10;;;;;;5083536;28;20361;-70
2023/08/03 10:17:45;;;;;;;;;;;19.10;98.20;;;;;;5068832;28;19912;-70
2023/08/03 10:20:12;;;;;;;;;;;19.10;98.10;;;;;;5078152;28;19924;-69
2023/08/03 10:22:37;;;;;;;;;;;19.10;98.10;;;;;;5081032;28;19916;-69
2023/08/03 10:25:17;;;;;;;;;;;19.10;98.00;;;;;;5092279;28;19923;-69
2023/08/03 10:28:02;;;;;;;;;;;19.20;98.10;;;;;;5091879;28;19919;-69
2023/08/03 10:30:47;;;;;;;;;;;19.20;98.00;;;;;;5093415;28;19912;-69
2023/08/03 10:33:13;;;;;;;;;;;19.20;98.00;;;;;;5108740;28;20384;-70
2023/08/03 10:35:38;;;;;;;;;;;19.20;97.80;;;;;;5085535;28;19912;-69
2023/08/03 10:38:17;;;;;;;;;;;19.20;97.80;;;;;;5079903;28;19916;-69
2023/08/03 10:40:42;;;;;;;;;;;19.20;97.80;;;;;;5088242;28;20644;-69
2023/08/03 10:43:08;;;;;;;;;;;19.20;97.90;;;;;;5103385;28;19963;-69
2023/08/03 10:45:35;;;;;;;;;;;19.20;97.90;;;;;;5088257;28;19912;-69
2023/08/03 10:48:21;;;;;;;;;;;19.10;97.80;;;;;;5088279;28;20755;-69
2023/08/03 10:50:57;;;;;;;;;;;19.10;97.90;;;;;;5077250;28;20565;-70
2023/08/03 10:53:22;;;;;;;;;;;19.10;97.80;;;;;;5091046;28;19915;-69
2023/08/03 10:55:48;;;;;;;;;;;19.10;97.90;;;;;;5089121;28;19977;-69
2023/08/03 10:58:13;;;;;;;;;;;19.10;97.90;;;;;;5087790;28;19919;-70
2023/08/03 11:00:42;;;;;;;;;;;19.00;98.00;;;;;;5066125;28;20028;-69
2023/08/03 11:03:07;;;;;;;;;;;19.00;98.00;;;;;;5072035;28;19962;-69
2023/08/03 11:05:33;;;;;;;;;;;19.00;97.90;;;;;;5087514;28;20369;-69
2023/08/03 11:07:58;;;;;;;;;;;19.00;97.90;;;;;;5093570;28;19916;-69
2023/08/03 11:10:25;;;;;;;;;;;19.10;97.80;;;;;;5108096;28;19920;-69
2023/08/03 11:12:52;;;;;;;;;;;19.10;97.80;;;;;;5089777;28;19918;-69
2023/08/03 11:15:18;;;;;;;;;;;19.10;97.90;;;;;;5082878;28;19951;-69
2023/08/03 11:17:46;;;;;;;;;;;19.10;97.80;;;;;;5085644;28;19951;-69
2023/08/03 11:20:14;;;;;;;;;;;19.10;97.80;;;;;;5088145;28;19924;-70
2023/08/03 11:22:40;;;;;;;;;;;19.00;97.80;;;;;;5086790;28;19946;-69
2023/08/03 11:25:06;;;;;;;;;;;19.00;97.80;;;;;;5087188;28;20684;-69
2023/08/03 11:27:32;;;;;;;;;;;19.10;97.80;;;;;;5087933;28;20288;-69
2023/08/03 11:29:57;;;;;;;;;;;19.00;97.90;;;;;;5088755;28;19916;-69
2023/08/03 11:32:24;;;;;;;;;;;19.00;97.90;;;;;;5087224;28;19934;-69
2023/08/03 11:34:56;;;;;;;;;;;19.00;97.90;;;;;;5087897;28;20476;-69
2023/08/03 11:37:22;;;;;;;;;;;19.00;97.90;;;;;;5086274;28;19916;-69
2023/08/03 11:39:47;;;;;;;;;;;19.10;97.80;;;;;;5083588;28;19970;-69
2023/08/03 11:42:13;;;;;;;;;;;19.00;97.70;;;;;;5084885;28;20347;-69
2023/08/03 11:44:39;;;;;;;;;;;19.10;97.80;;;;;;5087312;28;19926;-69
2023/08/03 11:47:06;;;;;;;;;;;19.10;97.70;;;;;;5086848;28;19998;-69
2023/08/03 11:49:32;;;;;;;;;;;19.10;97.70;;;;;;5087485;28;19916;-69
2023/08/03 11:51:59;;;;;;;;;;;19.10;97.70;;;;;;5088479;28;19961;-69
2023/08/03 11:54:27;;;;;;;;;;;19.20;97.70;;;;;;5087051;28;20311;-69
2023/08/03 11:56:53;;;;;;;;;;;19.20;97.60;;;;;;5086858;28;19916;-69
2023/08/03 11:59:19;;;;;;;;;;;19.30;97.60;;;;;;5094378;28;19993;-69
2023/08/03 12:01:48;;;;;;;;;;;19.40;97.50;;;;;;5082967;28;19912;-69
2023/08/03 12:04:14;;;;;;;;;;;19.50;97.40;;;;;;5086488;28;19944;-69
2023/08/03 12:06:42;;;;;;;;;;;19.50;97.70;;;;;;5086562;28;20029;-69
2023/08/03 12:09:07;;;;;;;;;;;19.50;97.40;;;;;;5100562;28;19955;-69
2023/08/03 12:11:33;;;;;;;;;;;19.60;97.30;;;;;;5107660;28;19954;-69
2023/08/03 12:13:59;;;;;;;;;;;19.50;97.40;;;;;;5104669;28;20014;-69
2023/08/03 12:16:24;;;;;;;;;;;19.60;97.50;;;;;;5066812;28;20629;-69
2023/08/03 12:18:50;;;;;;;;;;;19.50;97.40;;;;;;5077408;28;19958;-69
2023/08/03 12:21:15;;;;;;;;;;;19.60;97.30;;;;;;5095198;28;20364;-69
2023/08/03 12:23:40;;;;;;;;;;;19.60;97.30;;;;;;5109114;28;20479;-69
2023/08/03 12:26:07;;;;;;;;;;;19.70;97.20;;;;;;5092356;28;19916;-69
2023/08/03 12:28:33;;;;;;;;;;;19.70;97.10;;;;;;5088910;28;20002;-69
2023/08/03 12:30:58;;;;;;;;;;;19.80;97.10;;;;;;5092303;28;20007;-69
2023/08/03 12:33:24;;;;;;;;;;;19.80;97.10;;;;;;5091273;28;19912;-69
2023/08/03 12:35:49;;;;;;;;;;;19.80;96.90;;;;;;5086235;28;19919;-69
2023/08/03 12:38:15;;;;;;;;;;;19.80;97.10;;;;;;5081590;28;19939;-68
2023/08/03 12:40:40;;;;;;;;;;;19.80;97.10;;;;;;5111727;28;19923;-68
2023/08/03 12:43:06;;;;;;;;;;;19.90;96.90;;;;;;5111854;28;19918;-69
2023/08/03 12:45:31;;;;;;;;;;;20.00;96.90;;;;;;5082155;28;19909;-69
2023/08/03 12:48:00;;;;;;;;;;;20.00;96.90;;;;;;5076948;28;19999;-69
2023/08/03 12:50:25;;;;;;;;;;;20.00;97.00;;;;;;5093397;28;19962;-69
2023/08/03 12:52:52;;;;;;;;;;;20.00;97.00;;;;;;5111629;28;20004;-68
2023/08/03 12:55:18;;;;;;;;;;;20.00;96.90;;;;;;5096688;28;19912;-68
2023/08/03 12:57:44;;;;;;;;;;;20.10;96.90;;;;;;5092239;28;19919;-68
2023/08/03 13:00:10;;;;;;;;;;;20.10;96.90;;;;;;5096370;28;19930;-69
2023/08/03 13:02:36;;;;;;;;;;;20.10;96.80;;;;;;5091217;28;19912;-70
2023/08/03 13:05:01;;;;;;;;;;;20.10;96.90;;;;;;5091415;28;19947;-69
2023/08/03 13:07:27;;;;;;;;;;;20.10;97.00;;;;;;5090717;28;19912;-68
2023/08/03 13:09:52;;;;;;;;;;;20.10;96.90;;;;;;5096866;28;19970;-68
2023/08/03 13:12:18;;;;;;;;;;;20.10;97.30;;;;;;5097734;28;19916;-68
2023/08/03 13:14:43;;;;;;;;;;;20.00;96.90;;;;;;5091086;28;19915;-68
2023/08/03 13:17:09;;;;;;;;;;;20.00;97.00;;;;;;5072217;28;19916;-69
2023/08/03 13:19:34;;;;;;;;;;;20.00;96.90;;;;;;5090839;28;19919;-69
2023/08/03 13:22:00;;;;;;;;;;;20.00;96.70;;;;;;5087296;28;20396;-69
2023/08/03 13:24:25;;;;;;;;;;;20.10;96.70;;;;;;5102585;28;19916;-68
2023/08/03 13:26:53;;;;;;;;;;;20.20;96.70;;;;;;5090774;28;19912;-68
2023/08/03 13:29:19;;;;;;;;;;;20.20;96.70;;;;;;5091179;28;19908;-68
2023/08/03 13:31:46;;;;;;;;;;;20.30;96.70;;;;;;5091024;28;19920;-68
2023/08/03 13:34:12;;;;;;;;;;;20.30;96.50;;;;;;5090642;28;19959;-69
2023/08/03 13:36:38;;;;;;;;;;;20.30;96.50;;;;;;5090536;28;20357;-68
2023/08/03 13:39:03;;;;;;;;;;;20.30;96.40;;;;;;5090860;28;20373;-68
2023/08/03 13:41:30;;;;;;;;;;;20.30;96.60;;;;;;5082102;28;19969;-68
2023/08/03 13:43:55;;;;;;;;;;;20.40;96.40;;;;;;5108942;28;19919;-68
2023/08/03 13:46:21;;;;;;;;;;;20.40;96.40;;;;;;5070214;28;19912;-68
2023/08/03 13:48:46;;;;;;;;;;;20.40;96.40;;;;;;5070345;28;19912;-68
2023/08/03 13:51:12;;;;;;;;;;;20.40;96.40;;;;;;5084611;28;20285;-68
2023/08/03 13:53:38;;;;;;;;;;;20.40;96.50;;;;;;5090075;28;19995;-68
2023/08/03 13:56:03;;;;;;;;;;;20.40;96.30;;;;;;5073965;28;19912;-68
2023/08/03 13:58:29;;;;;;;;;;;20.50;96.20;;;;;;5110932;28;19916;-68
2023/08/03 14:00:54;;;;;;;;;;;20.50;96.10;;;;;;5099315;28;19926;-69
2023/08/03 14:03:20;;;;;;;;;;;20.60;96.10;;;;;;5090041;28;19915;-70
2023/08/03 14:05:45;;;;;;;;;;;20.60;96.20;;;;;;5090030;28;19912;-69
2023/08/03 14:08:11;;;;;;;;;;;20.60;96.30;;;;;;5090159;28;19912;-70
2023/08/03 14:10:37;;;;;;;;;;;20.60;96.40;;;;;;5090536;28;19959;-70